Time;durP1;ratioP1;P1;durP2;ratioP2;P2;SDS_P1;SDS_P2;PMS_P1;PMS_P2;Temp;Humidity;BMP_temperature;BMP_pressure;BME280_temperature;BME280_humidity;BME280_pressure;Samples;Min_cycle;Max_cycle;Signal;HPM_P1;HPM_P2
2023/09/11 00:02:19;;;;;;;47.15;23.08;;;;;;;11.91;97.55;99815.31;5076176;28;20404;-47
2023/09/11 00:04:44;;;;;;;42.60;23.00;;;;;;;11.89;98.03;99815.34;5076043;28;20052;-44
2023/09/11 00:07:10;;;;;;;47.20;23.58;;;;;;;11.89;97.99;99819.72;5078914;28;20076;-43
2023/09/11 00:09:36;;;;;;;47.38;22.85;;;;;;;11.89;98.21;99820.56;5071713;28;20040;-44
2023/09/11 00:12:03;;;;;;;46.75;24.58;;;;;;;11.72;98.26;99789.06;5071554;28;20154;-49
2023/09/11 00:14:29;;;;;;;48.35;23.50;;;;;;;11.89;98.29;99814.50;5062631;28;20036;-45
2023/09/11 00:16:55;;;;;;;45.78;23.90;;;;;;;11.84;97.76;99806.03;5075250;28;20047;-47
2023/09/11 00:19:21;;;;;;;45.10;23.83;;;;;;;11.83;98.12;99810.38;5074460;28;20040;-45
2023/09/11 00:21:46;;;;;;;45.88;23.90;;;;;;;11.83;97.77;99812.13;5073662;28;20455;-45
2023/09/11 00:24:12;;;;;;;49.15;23.90;;;;;;;11.83;97.97;99804.31;5067893;28;20118;-45
2023/09/11 00:26:38;;;;;;;44.08;23.60;;;;;;;11.81;98.19;99801.78;5072633;28;20105;-44
2023/09/11 00:29:04;;;;;;;51.35;24.50;;;;;;;11.82;97.82;99802.63;5062878;28;20043;-43
2023/09/11 00:31:30;;;;;;;51.45;24.48;;;;;;;11.79;97.92;99803.59;5053046;28;20032;-44
2023/09/11 00:33:56;;;;;;;50.15;23.67;;;;;;;11.77;98.13;99802.81;5069360;28;20137;-45
2023/09/11 00:36:22;;;;;;;51.30;24.92;;;;;;;11.74;98.12;99796.84;5075557;28;20040;-48
2023/09/11 00:38:50;;;;;;;53.42;25.27;;;;;;;11.56;98.20;99769.72;5057913;28;20073;-47
2023/09/11 00:41:16;;;;;;;48.80;24.38;;;;;;;11.74;98.31;99804.66;5052774;28;20519;-45
2023/09/11 00:43:42;;;;;;;49.08;24.63;;;;;;;11.61;98.50;99777.34;5073813;28;20047;-46
2023/09/11 00:46:08;;;;;;;46.47;24.17;;;;;;;11.69;98.38;99796.16;5074246;28;20090;-46
2023/09/11 00:48:34;;;;;;;44.42;23.00;;;;;;;11.68;98.96;99795.28;5075676;28;20040;-44
2023/09/11 00:51:00;;;;;;;47.63;25.15;;;;;;;11.54;98.92;99776.72;5057953;28;20054;-46
2023/09/11 00:53:26;;;;;;;50.55;24.15;;;;;;;11.63;98.40;99791.16;5072262;28;20033;-48
2023/09/11 00:55:53;;;;;;;51.38;25.52;;;;;;;11.48;98.52;99769.13;5058495;28;20040;-49
2023/09/11 00:58:20;;;;;;;54.45;24.33;;;;;;;11.37;98.55;99759.13;5027540;28;20440;-46
2023/09/11 01:00:46;;;;;;;44.47;23.80;;;;;;;11.63;98.78;99802.44;5033628;28;20047;-42
2023/09/11 01:03:12;;;;;;;53.80;26.33;;;;;;;11.64;98.72;99804.13;5060100;28;20036;-47
2023/09/11 01:05:39;;;;;;;49.50;25.08;;;;;;;11.63;98.92;99799.81;5064051;28;20062;-45
2023/09/11 01:08:05;;;;;;;50.72;24.63;;;;;;;11.61;98.67;99799.03;5072906;28;20052;-44
2023/09/11 01:10:31;;;;;;;53.58;25.02;;;;;;;11.61;98.77;99801.66;5072295;28;20055;-46
2023/09/11 01:12:56;;;;;;;48.35;23.67;;;;;;;11.61;99.05;99793.84;5077898;28;20458;-48
2023/09/11 01:15:24;;;;;;;44.45;23.80;;;;;;;11.61;98.89;99795.59;5054258;28;20427;-46
2023/09/11 01:18:07;;;;;;;47.00;23.13;;;;;;;11.60;98.41;99791.28;5076988;28;20048;-46
2023/09/11 01:21:03;;;;;;;48.22;23.90;;;;;;;11.58;98.54;99793.94;5038002;28;20043;-47
2023/09/11 01:23:44;;;;;;;47.60;23.17;;;;;;;11.55;98.72;99782.78;5075926;28;20690;-46
2023/09/11 01:26:32;;;;;;;48.92;24.73;;;;;;;11.52;98.69;99778.53;5056012;28;20039;-46
2023/09/11 01:29:07;;;;;;;46.78;23.98;;;;;;;11.53;98.73;99787.19;5065908;28;20052;-45
2023/09/11 01:31:34;;;;;;;48.72;24.08;;;;;;;11.53;98.54;99781.97;5070329;28;20041;-45
2023/09/11 01:34:01;;;;;;;49.38;24.23;;;;;;;11.52;98.53;99786.34;5055755;28;20504;-45
2023/09/11 01:36:27;;;;;;;48.95;24.40;;;;;;;11.52;98.79;99783.72;5038255;28;20400;-46
2023/09/11 01:38:54;;;;;;;54.50;25.05;;;;;;;11.50;99.16;99790.78;5056162;28;20044;-46
2023/09/11 01:41:22;;;;;;;55.92;25.75;;;;;;;11.53;98.89;99792.41;5076780;28;20050;-42
2023/09/11 01:43:48;;;;;;;45.58;22.70;;;;;;;11.18;99.03;99736.41;5058526;28;20468;-46
2023/09/11 01:46:16;;;;;;;51.95;25.15;;;;;;;11.54;99.14;99787.16;5067401;28;20167;-49
2023/09/11 01:48:42;;;;;;;52.00;24.67;;;;;;;11.37;99.13;99759.13;5056940;28;20045;-49
2023/09/11 01:51:08;;;;;;;49.75;25.13;;;;;;;11.54;99.33;99788.91;5066918;28;20977;-43
2023/09/11 01:53:35;;;;;;;47.55;24.70;;;;;;;11.53;99.55;99785.44;5076209;28;20494;-44
2023/09/11 01:56:00;;;;;;;51.53;24.90;;;;;;;11.34;99.05;99751.44;5073315;28;20401;-47
2023/09/11 01:58:26;;;;;;;52.80;25.67;;;;;;;11.55;99.44;99788.00;5065036;28;20047;-45
2023/09/11 02:00:52;;;;;;;57.83;26.52;;;;;;;11.53;99.11;99775.03;5078616;28;20068;-46
2023/09/11 02:03:19;;;;;;;51.38;23.92;;;;;;;11.53;99.44;99790.66;5071598;28;20566;-44
2023/09/11 02:05:45;;;;;;;48.83;24.10;;;;;;;11.53;99.07;99789.78;5039066;28;20060;-46
2023/09/11 02:08:10;;;;;;;50.63;24.80;;;;;;;11.51;99.73;99787.28;5057933;28;20044;-44
2023/09/11 02:10:36;;;;;;;51.50;23.60;;;;;;;11.52;99.57;99785.50;5049117;28;20470;-47
2023/09/11 02:13:02;;;;;;;48.30;24.50;;;;;;;11.52;99.38;99782.88;5071649;28;20044;-48
2023/09/11 02:15:28;;;;;;;55.13;24.40;;;;;;;11.52;99.42;99788.94;5074597;28;20166;-43
2023/09/11 02:17:54;;;;;;;50.55;24.35;;;;;;;11.37;99.42;99758.25;5070419;28;20082;-42
2023/09/11 02:20:20;;;;;;;50.08;24.48;;;;;;;11.50;99.55;99788.16;5050708;28;20032;-46
2023/09/11 02:22:46;;;;;;;50.88;25.20;;;;;;;11.28;99.64;99745.59;5052114;28;20484;-45
2023/09/11 02:25:12;;;;;;;52.53;24.60;;;;;;;11.48;99.83;99779.56;5065800;28;20047;-44
2023/09/11 02:27:38;;;;;;;56.85;26.25;;;;;;;11.50;99.48;99782.09;5066231;28;20311;-46
2023/09/11 02:30:05;;;;;;;51.10;25.02;;;;;;;11.47;99.39;99778.69;5076159;28;20043;-45
2023/09/11 02:32:31;;;;;;;58.83;27.42;;;;;;;11.47;99.29;99780.44;5077928;28;20036;-46
2023/09/11 02:34:57;;;;;;;59.13;25.67;;;;;;;11.46;99.26;99777.00;5052200;28;21045;-43
2023/09/11 02:37:22;;;;;;;57.88;25.98;;;;;;;11.44;99.38;99773.63;5053454;28;20041;-47
2023/09/11 02:39:48;;;;;;;52.70;26.02;;;;;;;11.43;99.56;99766.72;5065742;28;20032;-46
2023/09/11 02:42:14;;;;;;;55.67;26.05;;;;;;;11.41;99.45;99770.25;5077985;28;20747;-46
2023/09/11 02:44:40;;;;;;;59.92;27.10;;;;;;;11.40;100.00;99768.59;5075334;28;20036;-44
2023/09/11 02:47:06;;;;;;;56.08;26.77;;;;;;;11.27;99.89;99752.53;5078119;28;20043;-46
2023/09/11 02:49:32;;;;;;;54.72;24.80;;;;;;;11.26;99.77;99757.78;5056753;28;20076;-44
2023/09/11 02:51:57;;;;;;;59.28;26.85;;;;;;;11.17;99.82;99740.78;5065993;28;20100;-46
2023/09/11 02:54:23;;;;;;;55.70;25.52;;;;;;;11.36;100.00;99774.78;5074434;28;20035;-44
2023/09/11 02:56:49;;;;;;;56.70;26.75;;;;;;;11.36;100.00;99769.56;5071556;28;20126;-45
2023/09/11 02:59:15;;;;;;;60.22;25.85;;;;;;;11.35;99.83;99771.34;5065395;28;20083;-45
2023/09/11 03:01:41;;;;;;;57.92;27.42;;;;;;;11.34;99.73;99772.25;5086946;28;20514;-47
2023/09/11 03:04:07;;;;;;;61.05;25.77;;;;;;;11.34;100.00;99774.84;5032944;28;20131;-44
2023/09/11 03:06:33;;;;;;;52.90;25.63;;;;;;;11.32;100.00;99774.06;5069282;28;20147;-46
2023/09/11 03:08:58;;;;;;;57.60;26.05;;;;;;;11.31;100.00;99772.34;5056933;28;20040;-44
2023/09/11 03:11:24;;;;;;;57.22;27.02;;;;;;;11.30;99.86;99768.06;5069106;28;20045;-45
2023/09/11 03:13:50;;;;;;;59.35;26.65;;;;;;;11.29;100.00;99781.97;5062886;28;20036;-45
2023/09/11 03:16:16;;;;;;;58.78;26.13;;;;;;;11.16;100.00;99753.81;5050613;28;20419;-47
2023/09/11 03:18:48;;;;;;;56.65;25.58;;;;;;;11.28;100.00;99775.06;5047977;28;20527;-46
2023/09/11 03:21:14;;;;;;;57.88;27.13;;;;;;;11.30;99.92;99782.84;5058705;28;20040;-45
2023/09/11 03:23:40;;;;;;;58.15;27.10;;;;;;;11.29;100.00;99776.78;5064615;28;20047;-47
2023/09/11 03:26:16;;;;;;;59.25;28.20;;;;;;;11.30;99.82;99780.22;5059782;28;20035;-44
2023/09/11 03:28:50;;;;;;;56.03;25.95;;;;;;;11.31;100.00;99774.09;5057452;28;20059;-43
2023/09/11 03:31:19;;;;;;;55.05;24.88;;;;;;;11.13;100.00;99752.19;5029909;28;20682;-44
2023/09/11 03:33:45;;;;;;;54.97;25.33;;;;;;;11.34;100.00;99776.59;5059447;28;20051;-47
2023/09/11 03:36:16;;;;;;;56.97;26.27;;;;;;;11.35;99.92;99784.38;5075999;28;20080;-47
2023/09/11 03:38:42;;;;;;;59.25;25.92;;;;;;;11.36;100.00;99778.22;5075875;28;20044;-43
2023/09/11 03:41:09;;;;;;;54.00;26.27;;;;;;;11.36;99.77;99773.03;5066197;28;20059;-42
2023/09/11 03:43:36;;;;;;;58.30;26.55;;;;;;;11.40;99.66;99777.25;5070862;28;20051;-43
2023/09/11 03:46:02;;;;;;;57.22;26.73;;;;;;;11.26;99.65;99750.00;5078387;28;20105;-43
2023/09/11 03:48:29;;;;;;;51.10;25.67;;;;;;;11.45;99.85;99777.06;5053842;28;20051;-46
2023/09/11 03:50:56;;;;;;;56.00;26.15;;;;;;;11.46;99.47;99773.56;5072520;28;20036;-46
2023/09/11 03:53:22;;;;;;;53.85;25.05;;;;;;;11.50;99.84;99779.50;5074045;28;20465;-45
2023/09/11 03:55:48;;;;;;;54.45;25.60;;;;;;;11.34;99.59;99753.19;5074444;28;20051;-46
2023/09/11 03:58:16;;;;;;;60.80;25.88;;;;;;;11.51;99.78;99781.22;5055949;28;20135;-44
2023/09/11 04:00:42;;;;;;;91.47;28.02;;;;;;;11.54;99.76;99791.50;5072230;28;20078;-43
2023/09/11 04:03:08;;;;;;;63.03;26.95;;;;;;;11.50;99.08;99771.69;5077851;28;20492;-44
2023/09/11 04:05:34;;;;;;;59.75;27.15;;;;;;;11.57;99.40;99789.63;5073471;28;20063;-47
2023/09/11 04:07:59;;;;;;;59.17;26.92;;;;;;;11.41;99.61;99755.47;5069048;28;20640;-42
2023/09/11 04:10:25;;;;;;;58.45;26.73;;;;;;;11.53;99.35;99780.22;5048860;28;20041;-48
2023/09/11 04:12:51;;;;;;;59.50;25.90;;;;;;;11.62;99.36;99774.69;5073556;28;20070;-45
2023/09/11 04:15:17;;;;;;;58.35;27.33;;;;;;;11.63;98.74;99776.38;5077166;28;20044;-43
2023/09/11 04:17:43;;;;;;;59.55;26.15;;;;;;;11.53;99.30;99753.34;5071032;28;20068;-44
2023/09/11 04:20:09;;;;;;;59.92;26.35;;;;;;;11.51;98.98;99744.75;5074743;28;20050;-46
2023/09/11 04:22:35;;;;;;;52.65;26.08;;;;;;;11.70;98.88;99782.22;5038352;28;20036;-48
2023/09/11 04:25:02;;;;;;;57.50;26.50;;;;;;;11.60;98.78;99755.69;5076439;28;20056;-44
2023/09/11 04:27:29;;;;;;;61.00;26.40;;;;;;;11.83;98.91;99775.66;5055898;28;20546;-44
2023/09/11 04:29:56;;;;;;;65.57;29.25;;;;;;;11.87;98.72;99774.66;5071092;28;20047;-45
2023/09/11 04:32:22;;;;;;;55.83;27.63;;;;;;;11.94;98.38;99781.31;5064902;28;20043;-47
2023/09/11 04:34:49;;;;;;;62.28;28.17;;;;;;;11.98;98.01;99774.25;5069009;28;20174;-46
2023/09/11 04:37:17;;;;;;;58.95;27.55;;;;;;;12.02;98.46;99776.69;5075427;28;20138;-44
2023/09/11 04:39:43;;;;;;;58.25;27.13;;;;;;;11.91;98.13;99754.53;5050528;28;20049;-46
2023/09/11 04:42:09;;;;;;;59.03;28.27;;;;;;;12.13;98.34;99781.47;5068139;28;20123;-45
2023/09/11 04:44:35;;;;;;;56.35;27.60;;;;;;;12.19;97.73;99783.84;5069334;28;20131;-46
2023/09/11 04:47:01;;;;;;;59.65;27.13;;;;;;;12.22;97.98;99776.75;5055084;28;20811;-45
2023/09/11 04:49:27;;;;;;;65.07;28.00;;;;;;;12.32;97.38;99780.69;5066714;28;20101;-46
2023/09/11 04:51:53;;;;;;;56.80;26.13;;;;;;;12.40;97.51;99780.38;5077624;28;20419;-45
2023/09/11 04:54:19;;;;;;;61.60;26.95;;;;;;;12.47;97.15;99781.81;5071681;28;20050;-47
2023/09/11 04:56:45;;;;;;;58.97;28.45;;;;;;;12.20;97.07;99728.16;5060987;28;20132;-44
2023/09/11 04:59:11;;;;;;;58.90;27.65;;;;;;;12.61;96.86;99782.09;5072480;28;20627;-49
2023/09/11 05:01:37;;;;;;;57.00;27.60;;;;;;;12.57;96.28;99751.00;5038132;28;20069;-48
2023/09/11 05:04:03;;;;;;;55.03;27.08;;;;;;;12.50;96.00;99723.50;5045194;28;20177;-46
2023/09/11 05:06:30;;;;;;;53.00;25.38;;;;;;;12.89;96.04;99776.59;5058588;28;20055;-45
2023/09/11 05:08:56;;;;;;;56.45;27.50;;;;;;;12.71;95.68;99733.88;5062322;28;20079;-43
2023/09/11 05:11:23;;;;;;;55.25;26.70;;;;;;;12.89;95.47;99747.03;5062688;28;20074;-44
2023/09/11 05:13:49;;;;;;;51.53;26.58;;;;;;;13.00;95.24;99757.84;5070856;28;20079;-45
2023/09/11 05:16:17;;;;;;;55.60;29.33;;;;;;;13.05;94.58;99750.69;5041290;28;20615;-47
2023/09/11 05:18:43;;;;;;;54.72;26.20;;;;;;;13.29;94.29;99780.13;5072907;28;20052;-46
2023/09/11 05:21:09;;;;;;;56.08;28.30;;;;;;;13.42;94.24;99778.66;5058046;28;20134;-45
2023/09/11 05:23:34;;;;;;;50.83;26.30;;;;;;;13.43;93.78;99768.16;5073133;28;20113;-45
2023/09/11 05:26:01;;;;;;;59.13;26.73;;;;;;;13.47;93.28;99774.94;5063098;28;20059;-46
2023/09/11 05:28:27;;;;;;;49.05;26.50;;;;;;;13.58;92.99;99774.47;5076209;28;20082;-44
2023/09/11 05:30:53;;;;;;;55.28;27.33;;;;;;;13.66;92.76;99771.50;5072431;28;20059;-49
2023/09/11 05:33:19;;;;;;;57.58;27.27;;;;;;;13.72;92.28;99779.03;5067024;28;20040;-45
2023/09/11 05:35:45;;;;;;;53.65;27.42;;;;;;;13.50;92.06;99719.94;5055194;28;20044;-45
2023/09/11 05:38:11;;;;;;;50.85;26.83;;;;;;;13.92;91.37;99777.22;5049709;28;20101;-46
2023/09/11 05:40:37;;;;;;;55.83;27.08;;;;;;;14.03;91.17;99773.28;5045737;28;20463;-43
2023/09/11 05:43:03;;;;;;;58.00;29.42;;;;;;;13.97;90.05;99722.94;5052420;28;20085;-44
2023/09/11 05:45:29;;;;;;;51.38;26.90;;;;;;;14.52;89.47;99769.16;5082888;28;20037;-45
2023/09/11 05:47:55;;;;;;;50.88;27.17;;;;;;;14.50;87.83;99719.53;5072482;28;20707;-48
2023/09/11 05:50:21;;;;;;;52.38;26.88;;;;;;;15.16;86.80;99765.00;5072061;28;20573;-44
2023/09/11 05:52:47;;;;;;;50.63;27.40;;;;;;;15.66;84.99;99759.75;5065737;28;20086;-46
2023/09/11 05:55:12;;;;;;;50.33;26.25;;;;;;;16.31;82.32;99755.28;5069285;28;20068;-44
2023/09/11 05:57:38;;;;;;;45.30;26.35;;;;;;;16.94;78.27;99758.59;5070418;28;20443;-44
2023/09/11 06:00:10;;;;;;;40.30;23.50;;;;;;;17.54;75.33;99740.03;5065171;28;20547;-47
2023/09/11 06:02:40;;;;;;;47.58;24.23;;;;;;;18.57;71.81;99759.78;5070074;28;20051;-46
2023/09/11 06:05:07;;;;;;;42.92;25.48;;;;;;;19.38;69.17;99749.84;5068892;28;20056;-48
2023/09/11 06:07:33;;;;;;;46.05;26.20;;;;;;;20.15;66.63;99722.34;5062199;28;20044;-46
2023/09/11 06:09:59;;;;;;;45.33;26.48;;;;;;;21.09;64.27;99759.38;5046368;28;20569;-45
2023/09/11 06:12:29;;;;;;;42.05;25.35;;;;;;;21.87;61.29;99759.44;5068834;28;20558;-48
2023/09/11 06:14:55;;;;;;;40.63;25.27;;;;;;;22.47;58.19;99755.44;5067661;28;20183;-49
2023/09/11 06:17:21;;;;;;;42.38;26.13;;;;;;;23.26;55.75;99754.09;5052590;28;20062;-53
2023/09/11 06:19:47;;;;;;;41.00;26.70;;;;;;;24.05;53.34;99754.16;5070696;28;20476;-47
2023/09/11 06:22:13;;;;;;;42.10;26.23;;;;;;;24.67;50.90;99752.13;5071167;28;20044;-48
2023/09/11 06:24:38;;;;;;;44.13;26.52;;;;;;;25.26;49.08;99749.28;5065320;28;20141;-49
2023/09/11 06:27:08;;;;;;;41.45;25.15;;;;;;;25.85;47.00;99748.94;5053516;28;20048;-47
2023/09/11 06:29:34;;;;;;;38.97;26.35;;;;;;;26.51;45.43;99748.66;5064870;28;20645;-44
2023/09/11 06:32:00;;;;;;;36.88;26.65;;;;;;;27.08;43.80;99747.34;5069089;28;20036;-45
2023/09/11 06:34:29;;;;;;;38.88;26.27;;;;;;;27.62;42.56;99754.19;5070367;28;20127;-47
2023/09/11 06:36:56;;;;;;;35.13;24.60;;;;;;;28.11;40.99;99744.50;5065019;28;20144;-49
2023/09/11 06:39:22;;;;;;;29.13;21.08;;;;;;;28.36;39.73;99750.81;5070847;28;20036;-46
2023/09/11 06:41:48;;;;;;;30.77;23.17;;;;;;;28.52;38.61;99741.97;5061130;28;20105;-46
2023/09/11 06:44:15;;;;;;;32.00;22.63;;;;;;;28.71;37.90;99741.63;5048619;28;20051;-50
2023/09/11 06:46:41;;;;;;;31.77;24.20;;;;;;;28.89;37.51;99742.31;5076954;28;20044;-48
2023/09/11 06:49:07;;;;;;;33.83;23.08;;;;;;;28.94;37.02;99734.59;5072086;28;20040;-45
2023/09/11 06:51:33;;;;;;;27.00;21.65;;;;;;;29.66;35.83;99737.31;5069787;28;20127;-48
2023/09/11 06:54:00;;;;;;;30.55;23.08;;;;;;;30.49;34.73;99742.97;5080699;28;20032;-45
2023/09/11 06:56:26;;;;;;;30.38;22.77;;;;;;;31.30;33.79;99744.97;5070871;28;20098;-51
2023/09/11 06:58:52;;;;;;;29.85;23.60;;;;;;;32.11;32.52;99743.97;5070308;28;20044;-49
2023/09/11 07:01:18;;;;;;;32.08;23.20;;;;;;;32.65;31.67;99744.41;5066550;28;20046;-48
2023/09/11 07:03:46;;;;;;;32.50;23.10;;;;;;;32.86;30.95;99727.38;5067655;28;20036;-50
2023/09/11 07:06:12;;;;;;;29.95;21.40;;;;;;;32.92;30.83;99738.22;5067189;28;20068;-49
2023/09/11 07:08:38;;;;;;;27.17;21.73;;;;;;;33.01;30.57;99720.88;5073392;28;20048;-51
2023/09/11 07:11:03;;;;;;;27.52;22.13;;;;;;;33.85;29.74;99736.97;5056228;28;20040;-48
2023/09/11 07:13:29;;;;;;;28.65;20.70;;;;;;;34.57;28.79;99742.59;5075109;28;20540;-47
2023/09/11 07:15:58;;;;;;;22.48;19.40;;;;;;;35.00;28.21;99745.75;5047933;28;20143;-48
2023/09/11 07:18:25;;;;;;;23.27;18.25;;;;;;;35.28;27.34;99745.53;5043944;28;20522;-48
2023/09/11 07:20:52;;;;;;;24.55;20.63;;;;;;;35.36;26.92;99736.38;5062545;28;20078;-48
2023/09/11 07:23:22;;;;;;;24.15;19.77;;;;;;;35.57;26.98;99736.94;5073215;28;20047;-51
2023/09/11 07:25:48;;;;;;;21.92;16.77;;;;;;;36.03;26.04;99739.50;5074268;28;20047;-45
2023/09/11 07:28:14;;;;;;;16.27;14.65;;;;;;;36.41;25.44;99736.81;5065417;28;20040;-47
2023/09/11 07:30:40;;;;;;;17.50;15.27;;;;;;;36.50;25.20;99727.34;5062616;28;20059;-49
2023/09/11 07:33:06;;;;;;;25.42;18.77;;;;;;;36.76;24.87;99739.91;5066050;28;20036;-51
2023/09/11 07:35:32;;;;;;;26.75;19.70;;;;;;;37.22;24.50;99744.94;5066229;28;20542;-47
2023/09/11 07:37:58;;;;;;;23.23;20.05;;;;;;;36.83;24.85;99734.44;5065754;28;20044;-50
2023/09/11 07:40:24;;;;;;;24.35;19.10;;;;;;;37.01;24.93;99737.19;5060663;28;20132;-46
2023/09/11 07:42:52;;;;;;;22.15;19.77;;;;;;;37.05;24.56;99730.28;5062611;28;20036;-45
2023/09/11 07:45:18;;;;;;;22.10;17.33;;;;;;;36.49;25.10;99736.53;5065336;28;20173;-48
2023/09/11 07:47:44;;;;;;;20.58;16.65;;;;;;;36.15;25.62;99728.84;5064170;28;20670;-45
2023/09/11 07:50:10;;;;;;;18.77;16.73;;;;;;;35.12;25.66;99719.72;5067559;28;20043;-47
2023/09/11 07:52:36;;;;;;;21.02;16.55;;;;;;;34.79;26.55;99733.28;5030474;28;20032;-48
2023/09/11 07:55:03;;;;;;;22.13;18.67;;;;;;;34.82;26.75;99730.16;5073137;28;20200;-48
2023/09/11 07:57:30;;;;;;;20.15;17.88;;;;;;;34.95;26.71;99734.75;5042614;28;20056;-49
2023/09/11 07:59:57;;;;;;;26.23;20.67;;;;;;;34.99;27.02;99735.16;5050003;28;20535;-49
2023/09/11 08:02:23;;;;;;;14.77;11.15;;;;;;;34.94;26.06;99734.94;5064278;28;20040;-45
2023/09/11 08:04:48;;;;;;;17.40;12.43;;;;;;;34.38;26.09;99730.72;5071138;28;20067;-47
2023/09/11 08:07:14;;;;;;;20.90;12.98;;;;;;;33.71;26.85;99729.88;5066602;28;20565;-50
2023/09/11 08:09:40;;;;;;;21.75;18.10;;;;;;;33.88;27.06;99704.19;5069146;28;20048;-49
2023/09/11 08:12:06;;;;;;;16.80;15.00;;;;;;;34.68;26.81;99727.63;5057992;28;20702;-46
2023/09/11 08:14:32;;;;;;;18.33;15.20;;;;;;;34.83;26.04;99709.38;5072087;28;20048;-48
2023/09/11 08:16:58;;;;;;;19.42;12.35;;;;;;;34.67;25.13;99682.75;5072716;28;20040;-49
2023/09/11 08:19:23;;;;;;;15.80;12.57;;;;;;;34.50;25.29;99719.31;5073154;28;20056;-46
2023/09/11 08:21:50;;;;;;;18.27;10.35;;;;;;;34.30;25.25;99713.88;5068674;28;20041;-46
2023/09/11 08:24:16;;;;;;;20.35;10.10;;;;;;;34.61;25.27;99714.13;5061914;28;20135;-47
2023/09/11 08:26:42;;;;;;;15.63;11.23;;;;;;;35.19;24.78;99714.34;5072265;28;20036;-46
2023/09/11 08:29:10;;;;;;;14.13;11.85;;;;;;;35.93;23.81;99709.34;5070347;28;20693;-47
2023/09/11 08:31:36;;;;;;;16.70;11.13;;;;;;;36.43;23.46;99706.81;5073204;28;20064;-49
2023/09/11 08:34:03;;;;;;;16.92;13.70;;;;;;;37.09;22.85;99709.00;5076479;28;20035;-45
2023/09/11 08:36:28;;;;;;;20.05;15.75;;;;;;;37.35;23.09;99708.72;5072520;28;20044;-47
2023/09/11 08:38:54;;;;;;;24.85;18.35;;;;;;;37.95;22.26;99706.94;5075602;28;20043;-47
2023/09/11 08:41:23;;;;;;;22.83;17.17;;;;;;;38.76;21.23;99714.56;5065121;28;20112;-47
2023/09/11 08:43:50;;;;;;;24.70;17.63;;;;;;;39.28;21.18;99712.81;5073776;28;20135;-45
2023/09/11 08:46:16;;;;;;;25.88;18.08;;;;;;;40.08;20.38;99707.44;5068868;28;20113;-50
2023/09/11 08:48:48;;;;;;;17.13;14.85;;;;;;;40.42;19.82;99713.78;5067578;28;20135;-46
2023/09/11 08:51:24;;;;;;;21.33;15.45;;;;;;;40.66;19.03;99708.22;5055423;28;20032;-45
2023/09/11 08:53:52;;;;;;;16.00;13.85;;;;;;;40.97;19.33;99704.91;5073826;28;20054;-49
2023/09/11 08:56:18;;;;;;;19.30;15.13;;;;;;;41.18;18.84;99690.50;5080080;28;20047;-48
2023/09/11 08:58:44;;;;;;;17.80;13.98;;;;;;;41.18;18.82;99700.59;5059146;28;20166;-47
2023/09/11 09:01:11;;;;;;;25.02;20.52;;;;;;;41.01;18.78;99704.16;5061301;28;20722;-47
2023/09/11 09:03:37;;;;;;;20.55;14.43;;;;;;;40.14;19.20;99692.03;5077763;28;20044;-48
2023/09/11 09:06:04;;;;;;;18.77;15.32;;;;;;;39.08;19.83;99696.03;5074052;28;20066;-49
2023/09/11 09:08:30;;;;;;;17.67;13.80;;;;;;;38.03;21.08;99690.38;5055088;28;20397;-47
2023/09/11 09:10:58;;;;;;;16.63;13.38;;;;;;;36.51;22.37;99663.16;5072207;28;20488;-54
2023/09/11 09:13:24;;;;;;;20.48;16.55;;;;;;;34.93;23.66;99669.25;5056153;28;20032;-48
2023/09/11 09:15:50;;;;;;;17.73;14.07;;;;;;;33.69;25.22;99676.13;5069434;28;20529;-46
2023/09/11 09:18:16;;;;;;;17.13;11.15;;;;;;;32.87;26.62;99672.50;5070843;28;20036;-49
2023/09/11 09:20:42;;;;;;;19.45;11.60;;;;;;;33.65;25.58;99674.00;5066459;28;20104;-53
2023/09/11 09:23:08;;;;;;;17.33;12.43;;;;;;;34.37;24.98;99675.06;5068352;28;20040;-49
2023/09/11 09:25:33;;;;;;;17.48;12.52;;;;;;;35.14;24.23;99676.28;5071253;28;20044;-48
2023/09/11 09:28:00;;;;;;;16.10;11.60;;;;;;;36.25;23.25;99663.38;5062758;28;20451;-45
2023/09/11 09:30:28;;;;;;;16.70;10.10;;;;;;;37.63;22.07;99679.19;5075163;28;20046;-49
2023/09/11 09:32:54;;;;;;;15.82;10.75;;;;;;;38.64;21.36;99656.63;5056553;28;20044;-47
2023/09/11 09:35:23;;;;;;;14.57;10.77;;;;;;;39.85;19.83;99691.19;5071413;28;20522;-48
2023/09/11 09:37:53;;;;;;;13.38;9.73;;;;;;;40.28;19.13;99677.03;5067522;28;20040;-51
2023/09/11 09:40:38;;;;;;;15.27;9.48;;;;;;;39.55;19.88;99683.22;5058200;28;20042;-46
2023/09/11 09:43:06;;;;;;;14.20;8.77;;;;;;;38.26;20.26;99676.06;5072568;28;20120;-49
2023/09/11 09:45:37;;;;;;;;;;;;;;;36.64;21.54;99671.22;5068046;28;20590;-51
2023/09/11 09:48:18;;;;;;;15.18;9.52;;;;;;;34.85;23.00;99667.63;5076944;28;19968;-50
2023/09/11 09:50:50;;;;;;;12.02;8.98;;;;;;;33.54;24.17;99668.16;5078639;28;20040;-46
2023/09/11 09:53:33;;;;;;;13.23;9.35;;;;;;;32.26;25.60;99662.22;5075107;28;20050;-48
2023/09/11 09:56:03;;;;;;;17.80;12.13;;;;;;;31.45;26.92;99655.25;5072901;28;20043;-48
2023/09/11 09:58:30;;;;;;;12.15;9.23;;;;;;;30.82;28.66;99658.47;5079763;28;20044;-46
2023/09/11 10:00:58;;;;;;;13.10;9.18;;;;;;;31.45;28.05;99657.94;5070109;28;20063;-44
2023/09/11 10:03:25;;;;;;;10.02;8.07;;;;;;;32.05;27.16;99637.13;5078350;28;20500;-45
2023/09/11 10:05:51;;;;;;;11.88;8.25;;;;;;;31.71;26.96;99656.63;5072725;28;20092;-47
2023/09/11 10:08:17;;;;;;;12.43;9.07;;;;;;;31.13;27.77;99637.69;5078110;28;20078;-49
2023/09/11 10:10:43;;;;;;;12.30;8.80;;;;;;;31.58;26.94;99619.66;5079369;28;20114;-49
2023/09/11 10:13:10;;;;;;;14.30;8.60;;;;;;;31.42;27.73;99652.94;5057921;28;20028;-46
2023/09/11 10:15:38;;;;;;;9.60;8.43;;;;;;;33.41;26.02;99659.16;5073083;28;20047;-50
2023/09/11 10:18:05;;;;;;;12.18;8.80;;;;;;;35.34;23.97;99663.56;5058847;28;20044;-49
2023/09/11 10:20:31;;;;;;;10.43;8.63;;;;;;;35.16;23.32;99660.69;5078027;28;20032;-49
2023/09/11 10:23:00;;;;;;;14.98;8.93;;;;;;;34.56;24.01;99659.06;5077426;28;20040;-48
2023/09/11 10:25:33;;;;;;;17.52;9.90;;;;;;;33.36;24.92;99648.13;5073848;28;20072;-44
2023/09/11 10:28:05;;;;;;;14.60;10.35;;;;;;;31.91;26.62;99650.44;5059853;28;20116;-49
2023/09/11 10:30:58;;;;;;;18.08;9.88;;;;;;;30.94;28.08;99656.13;5063369;28;20110;-46
2023/09/11 10:33:26;;;;;;;15.50;10.63;;;;;;;30.29;28.41;99643.31;5045987;28;20409;-47
2023/09/11 10:35:58;;;;;;;14.05;9.60;;;;;;;29.80;29.24;99640.91;5077530;28;20048;-47
2023/09/11 10:38:28;;;;;;;19.73;9.95;;;;;;;29.51;29.72;99650.63;5076702;28;20127;-43
2023/09/11 10:40:57;;;;;;;15.32;9.05;;;;;;;29.22;30.64;99648.53;5055427;28;20041;-50
2023/09/11 10:43:23;;;;;;;20.20;9.98;;;;;;;28.82;30.95;99653.00;5064189;28;20044;-44
2023/09/11 10:45:51;;;;;;;18.10;9.95;;;;;;;28.52;31.72;99651.00;5056605;28;20112;-44
2023/09/11 10:48:31;;;;;;;13.47;8.60;;;;;;;28.70;31.00;99645.44;5069890;28;20503;-43
2023/09/11 10:50:58;;;;;;;13.63;8.40;;;;;;;29.42;30.91;99650.66;5069372;28;20055;-48
2023/09/11 10:53:28;;;;;;;20.20;9.53;;;;;;;30.86;28.74;99653.53;5078210;28;20034;-46
2023/09/11 10:55:57;;;;;;;16.73;9.75;;;;;;;32.72;26.49;99656.41;5093690;28;20424;-61
2023/09/11 10:58:25;;;;;;;16.05;9.70;;;;;;;33.56;25.54;99660.66;5077005;28;20061;-51
2023/09/11 11:00:53;;;;;;;14.55;9.43;;;;;;;32.09;26.33;99622.25;5076085;28;20044;-46
2023/09/11 11:03:19;;;;;;;15.02;9.55;;;;;;;32.55;26.48;99633.47;5063007;28;20490;-51
2023/09/11 11:05:46;;;;;;;19.90;9.73;;;;;;;34.47;24.54;99661.16;5090069;28;20064;-47
2023/09/11 11:08:12;;;;;;;16.00;9.77;;;;;;;35.87;22.66;99644.41;5088908;28;20071;-50
2023/09/11 11:10:44;;;;;;;15.82;9.20;;;;;;;36.64;21.72;99652.25;5071832;28;20071;-53
2023/09/11 11:13:11;;;;;;;12.40;8.75;;;;;;;37.53;20.85;99659.06;5052754;28;20060;-53
2023/09/11 11:15:37;;;;;;;17.43;9.50;;;;;;;38.12;20.71;99650.97;5074311;28;20044;-52
2023/09/11 11:18:28;;;;;;;13.73;8.50;;;;;;;38.88;19.89;99649.31;5071536;28;20098;-52
2023/09/11 11:21:00;;;;;;;11.70;8.00;;;;;;;38.49;19.73;99645.41;5055154;28;20703;-51